sensor_id;sensor_type;location;lat;lon;timestamp;P1;durP1;ratioP1;P2;durP2;ratioP2
39738;SDS011;25422;48.286;8.484;2023-06-26T00:01:22;8.30;;;7.45;;
39738;SDS011;25422;48.286;8.484;2023-06-26T00:03:48;8.75;;;7.32;;
39738;SDS011;25422;48.286;8.484;2023-06-26T00:06:13;10.75;;;7.90;;
39738;SDS011;25422;48.286;8.484;2023-06-26T00:08:39;8.77;;;7.60;;
39738;SDS011;25422;48.286;8.484;2023-06-26T00:11:05;8.48;;;7.40;;
39738;SDS011;25422;48.286;8.484;2023-06-26T00:13:30;9.30;;;7.95;;
39738;SDS011;25422;48.286;8.484;2023-06-26T00:15:55;10.18;;;8.18;;
39738;SDS011;25422;48.286;8.484;2023-06-26T00:18:21;9.60;;;7.75;;
39738;SDS011;25422;48.286;8.484;2023-06-26T00:20:48;9.35;;;7.80;;
39738;SDS011;25422;48.286;8.484;2023-06-26T00:23:15;10.20;;;8.00;;
39738;SDS011;25422;48.286;8.484;2023-06-26T00:25:41;11.48;;;8.57;;
39738;SDS011;25422;48.286;8.484;2023-06-26T00:28:07;9.18;;;8.15;;
39738;SDS011;25422;48.286;8.484;2023-06-26T00:30:33;8.80;;;7.63;;
39738;SDS011;25422;48.286;8.484;2023-06-26T00:32:58;13.65;;;8.93;;
39738;SDS011;25422;48.286;8.484;2023-06-26T00:35:24;9.77;;;7.93;;
39738;SDS011;25422;48.286;8.484;2023-06-26T00:37:49;10.27;;;8.80;;
39738;SDS011;25422;48.286;8.484;2023-06-26T00:40:14;11.23;;;8.32;;
39738;SDS011;25422;48.286;8.484;2023-06-26T00:42:40;10.55;;;8.10;;
39738;SDS011;25422;48.286;8.484;2023-06-26T00:45:05;10.13;;;8.50;;
39738;SDS011;25422;48.286;8.484;2023-06-26T00:47:31;9.43;;;8.07;;
39738;SDS011;25422;48.286;8.484;2023-06-26T00:49:56;10.50;;;8.80;;
39738;SDS011;25422;48.286;8.484;2023-06-26T00:52:22;10.05;;;8.27;;
39738;SDS011;25422;48.286;8.484;2023-06-26T00:54:50;11.20;;;8.50;;
39738;SDS011;25422;48.286;8.484;2023-06-26T00:57:16;10.80;;;9.20;;
39738;SDS011;25422;48.286;8.484;2023-06-26T00:59:42;10.20;;;8.75;;
39738;SDS011;25422;48.286;8.484;2023-06-26T01:02:08;12.15;;;8.60;;
39738;SDS011;25422;48.286;8.484;2023-06-26T01:04:35;9.38;;;8.38;;
39738;SDS011;25422;48.286;8.484;2023-06-26T01:07:01;11.80;;;9.95;;
39738;SDS011;25422;48.286;8.484;2023-06-26T01:09:28;10.13;;;8.77;;
39738;SDS011;25422;48.286;8.484;2023-06-26T01:11:55;9.82;;;8.60;;
39738;SDS011;25422;48.286;8.484;2023-06-26T01:14:20;11.27;;;8.68;;
39738;SDS011;25422;48.286;8.484;2023-06-26T01:16:46;11.10;;;8.90;;
39738;SDS011;25422;48.286;8.484;2023-06-26T01:19:24;12.90;;;8.83;;
39738;SDS011;25422;48.286;8.484;2023-06-26T01:22:00;10.00;;;8.88;;
39738;SDS011;25422;48.286;8.484;2023-06-26T01:24:48;10.13;;;8.52;;
39738;SDS011;25422;48.286;8.484;2023-06-26T01:27:43;9.65;;;8.63;;
39738;SDS011;25422;48.286;8.484;2023-06-26T01:30:11;10.97;;;8.83;;
39738;SDS011;25422;48.286;8.484;2023-06-26T01:32:37;10.20;;;8.82;;
39738;SDS011;25422;48.286;8.484;2023-06-26T01:35:05;9.45;;;8.40;;
39738;SDS011;25422;48.286;8.484;2023-06-26T01:37:44;10.30;;;8.35;;
39738;SDS011;25422;48.286;8.484;2023-06-26T01:40:10;9.32;;;8.32;;
39738;SDS011;25422;48.286;8.484;2023-06-26T01:42:35;10.65;;;8.75;;
39738;SDS011;25422;48.286;8.484;2023-06-26T01:45:02;11.13;;;8.07;;
39738;SDS011;25422;48.286;8.484;2023-06-26T01:47:34;11.35;;;8.80;;
39738;SDS011;25422;48.286;8.484;2023-06-26T01:50:09;9.15;;;8.10;;
39738;SDS011;25422;48.286;8.484;2023-06-26T01:52:41;12.68;;;7.90;;
39738;SDS011;25422;48.286;8.484;2023-06-26T01:57:47;10.48;;;9.00;;
39738;SDS011;25422;48.286;8.484;2023-06-26T02:00:16;10.43;;;8.07;;
39738;SDS011;25422;48.286;8.484;2023-06-26T02:02:44;11.07;;;7.90;;
39738;SDS011;25422;48.286;8.484;2023-06-26T02:05:12;9.52;;;7.75;;
39738;SDS011;25422;48.286;8.484;2023-06-26T02:07:38;11.38;;;8.52;;
39738;SDS011;25422;48.286;8.484;2023-06-26T02:10:04;8.82;;;7.93;;
39738;SDS011;25422;48.286;8.484;2023-06-26T02:12:31;9.52;;;8.38;;
39738;SDS011;25422;48.286;8.484;2023-06-26T02:14:57;10.73;;;8.50;;
39738;SDS011;25422;48.286;8.484;2023-06-26T02:17:23;12.93;;;9.35;;
39738;SDS011;25422;48.286;8.484;2023-06-26T02:19:49;9.55;;;8.23;;
39738;SDS011;25422;48.286;8.484;2023-06-26T02:22:15;9.63;;;8.63;;
39738;SDS011;25422;48.286;8.484;2023-06-26T02:24:41;10.55;;;8.32;;
39738;SDS011;25422;48.286;8.484;2023-06-26T02:27:07;10.65;;;8.60;;
39738;SDS011;25422;48.286;8.484;2023-06-26T02:29:35;12.27;;;9.35;;
39738;SDS011;25422;48.286;8.484;2023-06-26T02:32:01;9.82;;;8.77;;
39738;SDS011;25422;48.286;8.484;2023-06-26T02:34:26;11.20;;;8.95;;
39738;SDS011;25422;48.286;8.484;2023-06-26T02:36:52;10.23;;;8.77;;
39738;SDS011;25422;48.286;8.484;2023-06-26T02:39:20;10.18;;;9.07;;
39738;SDS011;25422;48.286;8.484;2023-06-26T02:41:46;10.88;;;9.05;;
39738;SDS011;25422;48.286;8.484;2023-06-26T02:44:12;12.45;;;9.05;;
39738;SDS011;25422;48.286;8.484;2023-06-26T02:46:38;11.10;;;9.23;;
39738;SDS011;25422;48.286;8.484;2023-06-26T02:49:03;10.07;;;8.98;;
39738;SDS011;25422;48.286;8.484;2023-06-26T02:51:31;9.85;;;8.82;;
39738;SDS011;25422;48.286;8.484;2023-06-26T02:54:00;9.85;;;8.85;;
39738;SDS011;25422;48.286;8.484;2023-06-26T02:56:26;9.88;;;8.60;;
39738;SDS011;25422;48.286;8.484;2023-06-26T02:58:55;11.30;;;9.20;;
39738;SDS011;25422;48.286;8.484;2023-06-26T03:01:22;12.70;;;9.63;;
39738;SDS011;25422;48.286;8.484;2023-06-26T03:03:48;10.05;;;9.02;;
39738;SDS011;25422;48.286;8.484;2023-06-26T03:06:15;12.57;;;9.35;;
39738;SDS011;25422;48.286;8.484;2023-06-26T03:08:41;10.10;;;8.75;;
39738;SDS011;25422;48.286;8.484;2023-06-26T03:11:07;10.30;;;8.93;;
39738;SDS011;25422;48.286;8.484;2023-06-26T03:13:35;10.45;;;9.15;;
39738;SDS011;25422;48.286;8.484;2023-06-26T03:16:01;11.00;;;8.95;;
39738;SDS011;25422;48.286;8.484;2023-06-26T03:18:27;11.10;;;9.35;;
39738;SDS011;25422;48.286;8.484;2023-06-26T03:20:54;15.40;;;10.45;;
39738;SDS011;25422;48.286;8.484;2023-06-26T03:23:20;11.52;;;8.90;;
39738;SDS011;25422;48.286;8.484;2023-06-26T03:25:46;10.50;;;9.35;;
39738;SDS011;25422;48.286;8.484;2023-06-26T03:28:22;13.00;;;9.13;;
39738;SDS011;25422;48.286;8.484;2023-06-26T03:30:48;11.85;;;9.73;;
39738;SDS011;25422;48.286;8.484;2023-06-26T03:33:14;14.02;;;10.10;;
39738;SDS011;25422;48.286;8.484;2023-06-26T03:35:40;12.45;;;9.68;;
39738;SDS011;25422;48.286;8.484;2023-06-26T03:38:08;11.60;;;10.10;;
39738;SDS011;25422;48.286;8.484;2023-06-26T03:40:34;11.93;;;9.38;;
39738;SDS011;25422;48.286;8.484;2023-06-26T03:43:00;11.40;;;9.80;;
39738;SDS011;25422;48.286;8.484;2023-06-26T03:45:32;14.95;;;10.23;;
39738;SDS011;25422;48.286;8.484;2023-06-26T03:47:57;12.93;;;9.38;;
39738;SDS011;25422;48.286;8.484;2023-06-26T03:50:22;15.77;;;10.15;;
39738;SDS011;25422;48.286;8.484;2023-06-26T03:52:49;11.90;;;9.77;;
39738;SDS011;25422;48.286;8.484;2023-06-26T03:55:17;14.70;;;10.35;;
39738;SDS011;25422;48.286;8.484;2023-06-26T03:57:44;12.43;;;9.98;;
39738;SDS011;25422;48.286;8.484;2023-06-26T04:00:10;14.07;;;9.73;;
39738;SDS011;25422;48.286;8.484;2023-06-26T04:02:40;16.15;;;9.40;;
39738;SDS011;25422;48.286;8.484;2023-06-26T04:05:06;12.43;;;9.40;;
39738;SDS011;25422;48.286;8.484;2023-06-26T04:07:33;13.20;;;9.35;;
39738;SDS011;25422;48.286;8.484;2023-06-26T04:09:59;13.05;;;9.57;;
39738;SDS011;25422;48.286;8.484;2023-06-26T04:12:25;13.35;;;10.05;;
39738;SDS011;25422;48.286;8.484;2023-06-26T04:14:51;10.63;;;9.27;;
39738;SDS011;25422;48.286;8.484;2023-06-26T04:17:16;11.90;;;10.10;;
39738;SDS011;25422;48.286;8.484;2023-06-26T04:19:41;12.57;;;9.05;;
39738;SDS011;25422;48.286;8.484;2023-06-26T04:22:07;10.90;;;9.23;;
39738;SDS011;25422;48.286;8.484;2023-06-26T04:24:32;14.48;;;9.05;;
39738;SDS011;25422;48.286;8.484;2023-06-26T04:26:58;13.77;;;9.68;;
39738;SDS011;25422;48.286;8.484;2023-06-26T04:29:24;12.13;;;8.80;;
39738;SDS011;25422;48.286;8.484;2023-06-26T04:31:53;9.85;;;8.85;;
39738;SDS011;25422;48.286;8.484;2023-06-26T04:34:23;11.30;;;8.70;;
39738;SDS011;25422;48.286;8.484;2023-06-26T04:36:52;12.35;;;8.55;;
39738;SDS011;25422;48.286;8.484;2023-06-26T04:39:17;11.07;;;8.13;;
39738;SDS011;25422;48.286;8.484;2023-06-26T04:41:43;14.52;;;8.93;;
39738;SDS011;25422;48.286;8.484;2023-06-26T04:44:12;11.80;;;8.35;;
39738;SDS011;25422;48.286;8.484;2023-06-26T04:46:38;10.20;;;8.18;;
39738;SDS011;25422;48.286;8.484;2023-06-26T04:49:07;11.23;;;8.82;;
39738;SDS011;25422;48.286;8.484;2023-06-26T04:51:35;12.38;;;8.48;;
39738;SDS011;25422;48.286;8.484;2023-06-26T04:54:08;10.80;;;8.48;;
39738;SDS011;25422;48.286;8.484;2023-06-26T04:59:02;13.02;;;8.75;;
39738;SDS011;25422;48.286;8.484;2023-06-26T05:01:28;15.13;;;8.30;;
39738;SDS011;25422;48.286;8.484;2023-06-26T05:04:01;21.20;;;15.95;;
39738;SDS011;25422;48.286;8.484;2023-06-26T05:06:27;12.20;;;8.73;;
39738;SDS011;25422;48.286;8.484;2023-06-26T05:08:52;11.00;;;8.07;;
39738;SDS011;25422;48.286;8.484;2023-06-26T05:11:18;11.88;;;7.75;;
39738;SDS011;25422;48.286;8.484;2023-06-26T05:13:43;10.73;;;8.18;;
39738;SDS011;25422;48.286;8.484;2023-06-26T05:16:09;13.68;;;9.38;;
39738;SDS011;25422;48.286;8.484;2023-06-26T05:18:35;9.15;;;7.55;;
39738;SDS011;25422;48.286;8.484;2023-06-26T05:21:01;9.95;;;7.88;;
39738;SDS011;25422;48.286;8.484;2023-06-26T05:23:27;8.95;;;7.60;;
39738;SDS011;25422;48.286;8.484;2023-06-26T05:25:56;10.77;;;7.53;;
39738;SDS011;25422;48.286;8.484;2023-06-26T05:28:22;11.80;;;7.30;;
39738;SDS011;25422;48.286;8.484;2023-06-26T05:30:49;11.05;;;7.55;;
39738;SDS011;25422;48.286;8.484;2023-06-26T05:33:16;10.25;;;7.10;;
39738;SDS011;25422;48.286;8.484;2023-06-26T05:35:43;11.65;;;7.00;;
39738;SDS011;25422;48.286;8.484;2023-06-26T05:38:10;12.15;;;6.40;;
39738;SDS011;25422;48.286;8.484;2023-06-26T05:40:38;8.40;;;6.53;;
39738;SDS011;25422;48.286;8.484;2023-06-26T05:43:05;7.18;;;6.22;;
39738;SDS011;25422;48.286;8.484;2023-06-26T05:45:31;8.70;;;6.35;;
39738;SDS011;25422;48.286;8.484;2023-06-26T05:47:56;7.53;;;6.20;;
39738;SDS011;25422;48.286;8.484;2023-06-26T05:50:22;7.47;;;5.85;;
39738;SDS011;25422;48.286;8.484;2023-06-26T05:52:47;6.55;;;5.65;;
39738;SDS011;25422;48.286;8.484;2023-06-26T05:55:13;7.25;;;5.20;;
39738;SDS011;25422;48.286;8.484;2023-06-26T05:57:38;8.95;;;5.60;;
39738;SDS011;25422;48.286;8.484;2023-06-26T06:00:05;7.90;;;7.07;;
39738;SDS011;25422;48.286;8.484;2023-06-26T06:02:38;7.15;;;6.30;;
39738;SDS011;25422;48.286;8.484;2023-06-26T06:05:05;7.93;;;5.95;;
39738;SDS011;25422;48.286;8.484;2023-06-26T06:07:32;6.57;;;5.85;;
39738;SDS011;25422;48.286;8.484;2023-06-26T06:09:58;7.68;;;6.05;;
39738;SDS011;25422;48.286;8.484;2023-06-26T06:12:23;7.80;;;5.53;;
39738;SDS011;25422;48.286;8.484;2023-06-26T06:14:49;6.78;;;5.60;;
39738;SDS011;25422;48.286;8.484;2023-06-26T06:17:14;9.25;;;5.57;;
39738;SDS011;25422;48.286;8.484;2023-06-26T06:19:39;7.32;;;5.43;;
39738;SDS011;25422;48.286;8.484;2023-06-26T06:22:05;8.45;;;4.95;;
39738;SDS011;25422;48.286;8.484;2023-06-26T06:24:30;8.88;;;5.40;;
39738;SDS011;25422;48.286;8.484;2023-06-26T06:26:55;7.90;;;5.53;;
39738;SDS011;25422;48.286;8.484;2023-06-26T06:29:21;11.65;;;5.15;;
39738;SDS011;25422;48.286;8.484;2023-06-26T06:31:46;7.45;;;4.82;;
39738;SDS011;25422;48.286;8.484;2023-06-26T06:34:11;6.50;;;4.93;;
39738;SDS011;25422;48.286;8.484;2023-06-26T06:36:37;5.90;;;4.72;;
39738;SDS011;25422;48.286;8.484;2023-06-26T06:39:03;8.38;;;4.47;;
39738;SDS011;25422;48.286;8.484;2023-06-26T06:41:28;5.13;;;4.63;;
39738;SDS011;25422;48.286;8.484;2023-06-26T06:43:54;6.22;;;4.60;;
39738;SDS011;25422;48.286;8.484;2023-06-26T06:46:20;6.07;;;4.63;;
39738;SDS011;25422;48.286;8.484;2023-06-26T06:48:45;9.27;;;4.63;;
39738;SDS011;25422;48.286;8.484;2023-06-26T06:51:11;5.13;;;4.63;;
39738;SDS011;25422;48.286;8.484;2023-06-26T06:53:37;8.05;;;4.60;;
39738;SDS011;25422;48.286;8.484;2023-06-26T06:56:02;5.05;;;4.00;;
39738;SDS011;25422;48.286;8.484;2023-06-26T06:58:28;8.10;;;4.70;;
39738;SDS011;25422;48.286;8.484;2023-06-26T07:00:54;5.30;;;4.40;;
39738;SDS011;25422;48.286;8.484;2023-06-26T07:03:19;4.13;;;3.70;;
39738;SDS011;25422;48.286;8.484;2023-06-26T07:05:46;4.70;;;4.20;;
39738;SDS011;25422;48.286;8.484;2023-06-26T07:08:11;5.00;;;4.50;;
39738;SDS011;25422;48.286;8.484;2023-06-26T07:10:37;5.95;;;4.38;;
39738;SDS011;25422;48.286;8.484;2023-06-26T07:13:02;5.30;;;4.20;;
39738;SDS011;25422;48.286;8.484;2023-06-26T07:15:28;5.47;;;4.45;;
39738;SDS011;25422;48.286;8.484;2023-06-26T07:17:53;5.43;;;4.20;;
39738;SDS011;25422;48.286;8.484;2023-06-26T07:20:19;7.10;;;4.20;;
39738;SDS011;25422;48.286;8.484;2023-06-26T07:22:44;8.95;;;4.75;;
39738;SDS011;25422;48.286;8.484;2023-06-26T07:25:10;5.10;;;4.60;;
39738;SDS011;25422;48.286;8.484;2023-06-26T07:27:36;4.97;;;4.57;;
39738;SDS011;25422;48.286;8.484;2023-06-26T07:30:02;5.00;;;4.60;;
39738;SDS011;25422;48.286;8.484;2023-06-26T07:32:28;6.18;;;5.00;;
39738;SDS011;25422;48.286;8.484;2023-06-26T07:34:54;5.82;;;4.85;;
39738;SDS011;25422;48.286;8.484;2023-06-26T07:37:19;7.88;;;4.43;;
39738;SDS011;25422;48.286;8.484;2023-06-26T07:39:45;5.53;;;4.50;;
39738;SDS011;25422;48.286;8.484;2023-06-26T07:42:10;5.10;;;4.60;;
39738;SDS011;25422;48.286;8.484;2023-06-26T07:44:35;9.13;;;4.70;;
39738;SDS011;25422;48.286;8.484;2023-06-26T07:47:01;6.93;;;4.57;;
39738;SDS011;25422;48.286;8.484;2023-06-26T07:49:27;4.97;;;4.38;;
39738;SDS011;25422;48.286;8.484;2023-06-26T07:51:52;5.82;;;4.65;;
39738;SDS011;25422;48.286;8.484;2023-06-26T07:54:18;7.22;;;4.40;;
39738;SDS011;25422;48.286;8.484;2023-06-26T07:56:53;5.63;;;4.60;;
39738;SDS011;25422;48.286;8.484;2023-06-26T07:59:20;6.07;;;4.63;;
39738;SDS011;25422;48.286;8.484;2023-06-26T08:01:47;4.78;;;4.38;;
39738;SDS011;25422;48.286;8.484;2023-06-26T08:04:12;5.65;;;4.55;;
39738;SDS011;25422;48.286;8.484;2023-06-26T08:06:38;5.20;;;4.57;;
39738;SDS011;25422;48.286;8.484;2023-06-26T08:09:05;4.53;;;4.13;;
39738;SDS011;25422;48.286;8.484;2023-06-26T08:11:32;5.25;;;4.43;;
39738;SDS011;25422;48.286;8.484;2023-06-26T08:13:58;4.80;;;4.30;;
39738;SDS011;25422;48.286;8.484;2023-06-26T08:16:24;5.40;;;4.03;;
39738;SDS011;25422;48.286;8.484;2023-06-26T08:18:49;6.32;;;4.22;;
39738;SDS011;25422;48.286;8.484;2023-06-26T08:21:15;4.85;;;4.38;;
39738;SDS011;25422;48.286;8.484;2023-06-26T08:23:40;5.72;;;4.05;;
39738;SDS011;25422;48.286;8.484;2023-06-26T08:26:05;6.15;;;4.85;;
39738;SDS011;25422;48.286;8.484;2023-06-26T08:28:31;4.70;;;4.05;;
39738;SDS011;25422;48.286;8.484;2023-06-26T08:30:56;5.28;;;4.32;;
39738;SDS011;25422;48.286;8.484;2023-06-26T08:33:21;5.50;;;4.60;;
39738;SDS011;25422;48.286;8.484;2023-06-26T08:35:47;4.90;;;4.30;;
39738;SDS011;25422;48.286;8.484;2023-06-26T08:38:12;4.95;;;4.47;;
39738;SDS011;25422;48.286;8.484;2023-06-26T08:40:37;5.45;;;4.47;;
39738;SDS011;25422;48.286;8.484;2023-06-26T08:43:03;4.53;;;4.13;;
39738;SDS011;25422;48.286;8.484;2023-06-26T08:45:29;5.05;;;4.55;;
39738;SDS011;25422;48.286;8.484;2023-06-26T08:47:55;4.80;;;4.32;;
39738;SDS011;25422;48.286;8.484;2023-06-26T08:50:25;4.80;;;4.40;;
39738;SDS011;25422;48.286;8.484;2023-06-26T08:52:56;5.10;;;3.88;;
39738;SDS011;25422;48.286;8.484;2023-06-26T08:55:43;5.07;;;4.00;;
39738;SDS011;25422;48.286;8.484;2023-06-26T08:58:08;6.18;;;4.47;;
39738;SDS011;25422;48.286;8.484;2023-06-26T09:00:35;9.07;;;4.38;;
39738;SDS011;25422;48.286;8.484;2023-06-26T09:03:00;5.47;;;4.15;;
39738;SDS011;25422;48.286;8.484;2023-06-26T09:05:28;8.30;;;4.00;;
39738;SDS011;25422;48.286;8.484;2023-06-26T09:07:54;4.82;;;4.38;;
39738;SDS011;25422;48.286;8.484;2023-06-26T09:10:22;5.90;;;4.40;;
39738;SDS011;25422;48.286;8.484;2023-06-26T09:12:47;4.60;;;4.20;;
39738;SDS011;25422;48.286;8.484;2023-06-26T09:15:22;6.07;;;4.45;;
39738;SDS011;25422;48.286;8.484;2023-06-26T09:17:48;4.70;;;4.13;;
39738;SDS011;25422;48.286;8.484;2023-06-26T09:20:13;4.95;;;4.45;;
39738;SDS011;25422;48.286;8.484;2023-06-26T09:22:40;5.43;;;4.57;;
39738;SDS011;25422;48.286;8.484;2023-06-26T09:25:08;6.20;;;4.82;;
39738;SDS011;25422;48.286;8.484;2023-06-26T09:27:35;6.78;;;5.05;;
39738;SDS011;25422;48.286;8.484;2023-06-26T09:30:02;6.30;;;5.10;;
39738;SDS011;25422;48.286;8.484;2023-06-26T09:32:36;6.43;;;5.20;;
39738;SDS011;25422;48.286;8.484;2023-06-26T09:35:02;7.40;;;5.30;;
39738;SDS011;25422;48.286;8.484;2023-06-26T09:37:29;7.80;;;5.57;;
39738;SDS011;25422;48.286;8.484;2023-06-26T09:39:54;6.00;;;5.50;;
39738;SDS011;25422;48.286;8.484;2023-06-26T09:42:20;6.03;;;5.43;;
39738;SDS011;25422;48.286;8.484;2023-06-26T09:44:46;8.65;;;5.55;;
39738;SDS011;25422;48.286;8.484;2023-06-26T09:47:12;8.27;;;5.30;;
39738;SDS011;25422;48.286;8.484;2023-06-26T09:49:41;10.75;;;6.13;;
39738;SDS011;25422;48.286;8.484;2023-06-26T09:52:08;6.38;;;5.68;;
39738;SDS011;25422;48.286;8.484;2023-06-26T09:54:34;10.77;;;5.68;;
39738;SDS011;25422;48.286;8.484;2023-06-26T09:57:08;6.30;;;5.68;;
39738;SDS011;25422;48.286;8.484;2023-06-26T09:59:34;6.38;;;5.60;;
39738;SDS011;25422;48.286;8.484;2023-06-26T10:02:00;5.72;;;5.05;;
39738;SDS011;25422;48.286;8.484;2023-06-26T10:04:25;5.90;;;5.25;;
39738;SDS011;25422;48.286;8.484;2023-06-26T10:06:51;5.93;;;5.30;;
39738;SDS011;25422;48.286;8.484;2023-06-26T10:09:20;7.35;;;5.20;;
39738;SDS011;25422;48.286;8.484;2023-06-26T10:11:55;5.75;;;5.10;;
39738;SDS011;25422;48.286;8.484;2023-06-26T10:14:25;6.30;;;5.53;;
39738;SDS011;25422;48.286;8.484;2023-06-26T10:16:52;6.70;;;5.50;;
39738;SDS011;25422;48.286;8.484;2023-06-26T10:19:23;11.30;;;5.60;;
39738;SDS011;25422;48.286;8.484;2023-06-26T10:21:51;6.65;;;5.60;;
39738;SDS011;25422;48.286;8.484;2023-06-26T10:24:18;7.00;;;5.78;;
39738;SDS011;25422;48.286;8.484;2023-06-26T10:26:45;6.53;;;5.82;;
39738;SDS011;25422;48.286;8.484;2023-06-26T10:29:15;6.53;;;5.82;;
39738;SDS011;25422;48.286;8.484;2023-06-26T10:31:43;13.40;;;6.32;;
39738;SDS011;25422;48.286;8.484;2023-06-26T10:34:11;9.60;;;5.32;;
39738;SDS011;25422;48.286;8.484;2023-06-26T10:36:37;10.07;;;5.35;;
39738;SDS011;25422;48.286;8.484;2023-06-26T10:39:04;12.73;;;5.90;;
39738;SDS011;25422;48.286;8.484;2023-06-26T10:41:35;6.13;;;5.50;;
39738;SDS011;25422;48.286;8.484;2023-06-26T10:46:51;6.32;;;5.55;;
39738;SDS011;25422;48.286;8.484;2023-06-26T10:49:18;8.05;;;5.82;;
39738;SDS011;25422;48.286;8.484;2023-06-26T10:51:54;6.10;;;5.50;;
39738;SDS011;25422;48.286;8.484;2023-06-26T10:54:27;7.30;;;5.40;;
39738;SDS011;25422;48.286;8.484;2023-06-26T10:56:55;6.78;;;5.47;;
39738;SDS011;25422;48.286;8.484;2023-06-26T10:59:24;8.30;;;5.30;;
39738;SDS011;25422;48.286;8.484;2023-06-26T11:01:55;5.85;;;5.25;;
39738;SDS011;25422;48.286;8.484;2023-06-26T11:04:40;6.13;;;5.00;;
39738;SDS011;25422;48.286;8.484;2023-06-26T11:09:58;5.85;;;5.28;;
39738;SDS011;25422;48.286;8.484;2023-06-26T11:12:42;8.70;;;5.68;;
39738;SDS011;25422;48.286;8.484;2023-06-26T11:15:08;6.68;;;5.07;;
39738;SDS011;25422;48.286;8.484;2023-06-26T11:17:35;7.82;;;5.45;;
39738;SDS011;25422;48.286;8.484;2023-06-26T11:20:02;6.75;;;5.13;;
39738;SDS011;25422;48.286;8.484;2023-06-26T11:22:29;6.00;;;5.20;;
39738;SDS011;25422;48.286;8.484;2023-06-26T11:24:59;5.75;;;5.22;;
39738;SDS011;25422;48.286;8.484;2023-06-26T11:27:24;7.18;;;5.72;;
39738;SDS011;25422;48.286;8.484;2023-06-26T11:29:50;10.10;;;6.05;;
39738;SDS011;25422;48.286;8.484;2023-06-26T11:32:15;8.77;;;5.97;;
39738;SDS011;25422;48.286;8.484;2023-06-26T11:34:40;6.47;;;5.72;;
39738;SDS011;25422;48.286;8.484;2023-06-26T11:37:08;8.70;;;6.07;;
39738;SDS011;25422;48.286;8.484;2023-06-26T11:39:33;7.28;;;6.13;;
39738;SDS011;25422;48.286;8.484;2023-06-26T11:41:59;6.10;;;5.50;;
39738;SDS011;25422;48.286;8.484;2023-06-26T11:44:28;8.88;;;6.00;;
39738;SDS011;25422;48.286;8.484;2023-06-26T11:46:55;6.93;;;5.93;;
39738;SDS011;25422;48.286;8.484;2023-06-26T11:49:21;7.60;;;6.30;;
39738;SDS011;25422;48.286;8.484;2023-06-26T11:51:48;9.48;;;6.43;;
39738;SDS011;25422;48.286;8.484;2023-06-26T11:54:13;10.25;;;6.35;;
39738;SDS011;25422;48.286;8.484;2023-06-26T11:56:39;9.65;;;6.10;;
39738;SDS011;25422;48.286;8.484;2023-06-26T11:59:06;9.57;;;6.45;;
39738;SDS011;25422;48.286;8.484;2023-06-26T12:01:34;8.63;;;6.70;;
39738;SDS011;25422;48.286;8.484;2023-06-26T12:04:02;7.65;;;6.57;;
39738;SDS011;25422;48.286;8.484;2023-06-26T12:06:29;8.95;;;6.35;;
39738;SDS011;25422;48.286;8.484;2023-06-26T12:08:57;10.05;;;6.20;;
39738;SDS011;25422;48.286;8.484;2023-06-26T12:11:25;6.68;;;6.05;;
39738;SDS011;25422;48.286;8.484;2023-06-26T12:13:52;8.40;;;6.70;;
39738;SDS011;25422;48.286;8.484;2023-06-26T12:16:18;6.78;;;6.18;;
39738;SDS011;25422;48.286;8.484;2023-06-26T12:18:44;7.57;;;6.78;;
39738;SDS011;25422;48.286;8.484;2023-06-26T12:21:27;11.75;;;6.65;;
39738;SDS011;25422;48.286;8.484;2023-06-26T12:23:57;8.02;;;6.15;;
39738;SDS011;25422;48.286;8.484;2023-06-26T12:26:25;6.22;;;5.63;;
39738;SDS011;25422;48.286;8.484;2023-06-26T12:28:51;7.95;;;6.22;;
39738;SDS011;25422;48.286;8.484;2023-06-26T12:31:17;6.32;;;5.72;;
39738;SDS011;25422;48.286;8.484;2023-06-26T12:36:14;6.88;;;5.70;;
39738;SDS011;25422;48.286;8.484;2023-06-26T12:38:44;8.85;;;6.22;;
39738;SDS011;25422;48.286;8.484;2023-06-26T12:41:14;7.15;;;5.85;;
39738;SDS011;25422;48.286;8.484;2023-06-26T12:43:41;6.75;;;6.00;;
39738;SDS011;25422;48.286;8.484;2023-06-26T12:46:07;6.45;;;5.85;;
39738;SDS011;25422;48.286;8.484;2023-06-26T12:51:14;6.45;;;5.80;;
39738;SDS011;25422;48.286;8.484;2023-06-26T12:53:42;7.03;;;5.53;;
39738;SDS011;25422;48.286;8.484;2023-06-26T12:56:09;6.78;;;5.70;;
39738;SDS011;25422;48.286;8.484;2023-06-26T12:58:35;6.38;;;5.45;;
39738;SDS011;25422;48.286;8.484;2023-06-26T13:01:03;7.45;;;5.32;;
39738;SDS011;25422;48.286;8.484;2023-06-26T13:03:29;5.95;;;5.40;;
39738;SDS011;25422;48.286;8.484;2023-06-26T13:05:54;7.45;;;5.65;;
39738;SDS011;25422;48.286;8.484;2023-06-26T13:08:20;6.65;;;5.40;;
39738;SDS011;25422;48.286;8.484;2023-06-26T13:10:45;10.00;;;5.82;;
39738;SDS011;25422;48.286;8.484;2023-06-26T13:13:11;7.68;;;6.28;;
39738;SDS011;25422;48.286;8.484;2023-06-26T13:15:36;6.63;;;5.90;;
39738;SDS011;25422;48.286;8.484;2023-06-26T13:18:02;8.45;;;5.82;;
39738;SDS011;25422;48.286;8.484;2023-06-26T13:20:28;11.27;;;5.97;;
39738;SDS011;25422;48.286;8.484;2023-06-26T13:22:53;8.18;;;5.82;;
39738;SDS011;25422;48.286;8.484;2023-06-26T13:25:20;8.07;;;5.60;;
39738;SDS011;25422;48.286;8.484;2023-06-26T13:27:46;6.25;;;5.65;;
39738;SDS011;25422;48.286;8.484;2023-06-26T13:30:12;7.38;;;5.50;;
39738;SDS011;25422;48.286;8.484;2023-06-26T13:32:39;6.75;;;5.55;;
39738;SDS011;25422;48.286;8.484;2023-06-26T13:35:04;6.57;;;5.15;;
39738;SDS011;25422;48.286;8.484;2023-06-26T13:37:30;7.07;;;6.05;;
39738;SDS011;25422;48.286;8.484;2023-06-26T13:39:56;7.05;;;5.63;;
39738;SDS011;25422;48.286;8.484;2023-06-26T13:42:24;6.47;;;5.53;;
39738;SDS011;25422;48.286;8.484;2023-06-26T13:44:49;7.95;;;5.45;;
39738;SDS011;25422;48.286;8.484;2023-06-26T13:47:15;8.00;;;5.43;;
39738;SDS011;25422;48.286;8.484;2023-06-26T13:49:41;7.63;;;5.13;;
39738;SDS011;25422;48.286;8.484;2023-06-26T13:52:06;6.55;;;5.20;;
39738;SDS011;25422;48.286;8.484;2023-06-26T13:54:35;7.35;;;5.60;;
39738;SDS011;25422;48.286;8.484;2023-06-26T13:57:02;8.40;;;5.20;;
39738;SDS011;25422;48.286;8.484;2023-06-26T13:59:30;6.63;;;5.60;;
39738;SDS011;25422;48.286;8.484;2023-06-26T14:01:56;6.03;;;5.30;;
39738;SDS011;25422;48.286;8.484;2023-06-26T14:04:21;9.38;;;5.35;;
39738;SDS011;25422;48.286;8.484;2023-06-26T14:06:47;7.05;;;5.43;;
39738;SDS011;25422;48.286;8.484;2023-06-26T14:09:12;7.22;;;5.60;;
39738;SDS011;25422;48.286;8.484;2023-06-26T14:11:38;7.18;;;4.75;;
39738;SDS011;25422;48.286;8.484;2023-06-26T14:14:03;6.88;;;5.50;;
39738;SDS011;25422;48.286;8.484;2023-06-26T14:16:29;8.43;;;5.30;;
39738;SDS011;25422;48.286;8.484;2023-06-26T14:18:54;6.97;;;5.10;;
39738;SDS011;25422;48.286;8.484;2023-06-26T14:21:20;6.60;;;4.93;;
39738;SDS011;25422;48.286;8.484;2023-06-26T14:23:46;6.32;;;4.82;;
39738;SDS011;25422;48.286;8.484;2023-06-26T14:26:12;7.20;;;4.88;;
39738;SDS011;25422;48.286;8.484;2023-06-26T14:28:37;6.45;;;4.75;;
39738;SDS011;25422;48.286;8.484;2023-06-26T14:31:04;9.18;;;5.07;;
39738;SDS011;25422;48.286;8.484;2023-06-26T14:33:30;8.68;;;4.88;;
39738;SDS011;25422;48.286;8.484;2023-06-26T14:35:55;6.70;;;4.70;;
39738;SDS011;25422;48.286;8.484;2023-06-26T14:38:21;9.98;;;4.78;;
39738;SDS011;25422;48.286;8.484;2023-06-26T14:40:46;5.90;;;4.55;;
39738;SDS011;25422;48.286;8.484;2023-06-26T14:43:12;7.00;;;4.85;;
39738;SDS011;25422;48.286;8.484;2023-06-26T14:45:37;5.72;;;4.60;;
39738;SDS011;25422;48.286;8.484;2023-06-26T14:48:03;9.25;;;4.60;;
39738;SDS011;25422;48.286;8.484;2023-06-26T14:50:28;5.35;;;3.70;;
39738;SDS011;25422;48.286;8.484;2023-06-26T14:52:54;11.43;;;4.07;;
39738;SDS011;25422;48.286;8.484;2023-06-26T14:55:20;4.32;;;3.65;;
39738;SDS011;25422;48.286;8.484;2023-06-26T14:57:45;4.22;;;3.80;;